createdAt,value
2018-03-21T00:00:08.196Z,99871.11
2018-03-21T00:02:35.763Z,99862.06
2018-03-21T00:05:03.392Z,99857.41
2018-03-21T00:07:31.020Z,99860.91
2018-03-21T00:09:58.582Z,99866.50
2018-03-21T00:12:26.224Z,99873.39
2018-03-21T00:14:53.792Z,99866.30
2018-03-21T00:17:21.377Z,99859.47
2018-03-21T00:19:48.940Z,99868.79
2018-03-21T00:22:16.593Z,99871.86
2018-03-21T00:24:44.233Z,99866.83
2018-03-21T00:27:11.862Z,99871.53
2018-03-21T00:29:39.434Z,99874.55
2018-03-21T00:32:07.059Z,99881.84
2018-03-21T00:34:34.706Z,99892.28
2018-03-21T00:37:02.331Z,99897.68
2018-03-21T00:39:29.920Z,99897.13
2018-03-21T00:41:57.504Z,99897.08
2018-03-21T00:44:25.095Z,99896.16
2018-03-21T00:46:52.722Z,99889.17
2018-03-21T00:49:20.364Z,99880.95
2018-03-21T00:51:47.927Z,99878.13
2018-03-21T00:54:15.546Z,99873.34
2018-03-21T00:56:43.172Z,99876.77
2018-03-21T00:59:10.730Z,99889.31
2018-03-21T01:01:38.302Z,99878.70
2018-03-21T01:04:05.883Z,99876.08
2018-03-21T01:06:33.519Z,99884.72
2018-03-21T01:09:01.144Z,99884.86
2018-03-21T01:11:28.722Z,99881.61
2018-03-21T01:13:56.299Z,99886.48
2018-03-21T01:16:23.936Z,99888.59
2018-03-21T01:18:51.507Z,99882.62
2018-03-21T01:21:19.071Z,99889.61
2018-03-21T01:23:46.654Z,99876.44
2018-03-21T01:26:14.280Z,99867.02
2018-03-21T01:28:41.913Z,99879.70
2018-03-21T01:31:09.490Z,99879.71
2018-03-21T01:33:37.078Z,99879.09
2018-03-21T01:36:04.687Z,99877.58
2018-03-21T01:38:32.352Z,99872.08
2018-03-21T01:40:59.927Z,99869.49
2018-03-21T01:43:27.502Z,99871.58
2018-03-21T01:45:55.113Z,99873.26
2018-03-21T01:48:22.683Z,99880.15
2018-03-21T01:50:50.362Z,99883.86
2018-03-21T01:53:17.941Z,99882.38
2018-03-21T01:55:45.520Z,99867.55
2018-03-21T01:58:13.091Z,99864.26
2018-03-21T02:00:40.812Z,99869.83
2018-03-21T02:03:08.450Z,99858.70
2018-03-21T02:05:36.016Z,99855.84
2018-03-21T02:08:03.587Z,99862.40
2018-03-21T02:10:31.211Z,99860.66
2018-03-21T02:12:58.790Z,99850.66
2018-03-21T02:15:26.430Z,99846.91
2018-03-21T02:17:54.058Z,99854.06
2018-03-21T02:20:21.700Z,99834.89
2018-03-21T02:22:49.267Z,99836.33
2018-03-21T02:25:16.863Z,99835.38
2018-03-21T02:27:44.425Z,99837.28
2018-03-21T02:30:12.007Z,99836.91
2018-03-21T02:32:39.665Z,99832.78
2018-03-21T02:35:07.295Z,99825.27
2018-03-21T02:37:34.854Z,99824.70
2018-03-21T02:40:02.414Z,99822.47
2018-03-21T02:42:29.988Z,99814.84
2018-03-21T02:44:57.619Z,99812.23
2018-03-21T02:47:25.195Z,99822.92
2018-03-21T02:49:52.758Z,99824.14
2018-03-21T02:52:20.434Z,99825.03
2018-03-21T02:54:48.089Z,99824.19
2018-03-21T02:57:15.721Z,99834.44
2018-03-21T02:59:43.309Z,99835.70
2018-03-21T03:02:10.905Z,99835.55
2018-03-21T03:04:38.543Z,99828.08
2018-03-21T03:07:06.112Z,99825.68
2018-03-21T03:09:33.754Z,99826.52
2018-03-21T03:12:01.411Z,99838.85
2018-03-21T03:14:29.094Z,99835.91
2018-03-21T03:16:56.728Z,99845.71
2018-03-21T03:19:24.396Z,99850.24
2018-03-21T03:21:52.027Z,99856.13
2018-03-21T03:24:19.590Z,99856.55
2018-03-21T03:26:47.222Z,99854.75
2018-03-21T03:29:14.874Z,99847.59
2018-03-21T03:31:42.450Z,99842.60
2018-03-21T03:34:10.033Z,99839.05
2018-03-21T03:36:37.724Z,99846.43
2018-03-21T03:39:05.383Z,99849.98
2018-03-21T03:41:32.948Z,99851.38
2018-03-21T03:44:00.534Z,99844.64
2018-03-21T03:46:28.105Z,99851.69
2018-03-21T03:48:55.669Z,99851.00
2018-03-21T03:51:23.233Z,99839.86
2018-03-21T03:53:50.879Z,99828.50
2018-03-21T03:56:18.494Z,99825.46
2018-03-21T03:58:46.054Z,99826.37
2018-03-21T04:01:13.623Z,99823.91
2018-03-21T04:03:41.198Z,99828.34
2018-03-21T04:06:08.890Z,99829.13
2018-03-21T04:08:36.464Z,99823.87
2018-03-21T04:11:04.094Z,99812.91
2018-03-21T04:13:31.710Z,99829.27
2018-03-21T04:15:59.284Z,99829.27
2018-03-21T04:18:26.862Z,99833.97
2018-03-21T04:20:54.490Z,99845.48
2018-03-21T04:23:22.118Z,99851.28
2018-03-21T04:25:49.687Z,99843.33
2018-03-21T04:28:17.344Z,99833.03
2018-03-21T04:30:44.914Z,99821.31
2018-03-21T04:33:12.481Z,99826.50
2018-03-21T04:35:40.113Z,99840.87
2018-03-21T04:38:07.744Z,99864.95
2018-03-21T04:40:35.321Z,99852.91
2018-03-21T04:43:02.890Z,99851.67
2018-03-21T04:45:30.503Z,99840.84
2018-03-21T04:47:58.114Z,99838.31
2018-03-21T04:50:25.779Z,99844.43
2018-03-21T04:52:53.402Z,99837.31
2018-03-21T04:55:21.032Z,99849.58
2018-03-21T04:57:48.647Z,99860.25
2018-03-21T05:00:16.218Z,99857.91
2018-03-21T05:02:43.783Z,99862.34
2018-03-21T05:05:11.392Z,99863.19
2018-03-21T05:07:38.971Z,99844.31
2018-03-21T05:10:06.534Z,99844.67
2018-03-21T05:12:34.173Z,99849.97
2018-03-21T05:15:01.738Z,99859.77
2018-03-21T05:17:29.306Z,99862.25
2018-03-21T05:19:56.875Z,99853.30
2018-03-21T05:22:24.441Z,99839.25
2018-03-21T05:24:52.025Z,99831.47
2018-03-21T05:27:19.587Z,99818.53
2018-03-21T05:29:47.158Z,99845.08
2018-03-21T05:32:14.731Z,99852.49
2018-03-21T05:34:42.367Z,99819.08
2018-03-21T05:37:10.004Z,99809.25
2018-03-21T05:39:37.564Z,99819.97
2018-03-21T05:42:05.139Z,99847.45
2018-03-21T05:44:32.694Z,99857.38
2018-03-21T05:47:00.266Z,99877.20
2018-03-21T05:49:27.890Z,99872.88
2018-03-21T05:51:55.463Z,99874.59
2018-03-21T05:54:23.030Z,99864.84
2018-03-21T05:56:50.713Z,99864.66
2018-03-21T05:59:18.318Z,99849.50
2018-03-21T06:01:45.881Z,99832.58
2018-03-21T06:04:14.363Z,99817.50
2018-03-21T06:06:41.937Z,99826.32
2018-03-21T06:09:09.576Z,99838.16
2018-03-21T06:11:37.147Z,99811.67
2018-03-21T06:14:04.774Z,99842.20
2018-03-21T06:16:32.349Z,99863.52
2018-03-21T06:18:59.963Z,99842.75
2018-03-21T06:21:27.525Z,99838.76
2018-03-21T06:23:55.091Z,99842.39
2018-03-21T06:26:22.680Z,99841.06
2018-03-21T06:28:50.252Z,99836.69
2018-03-21T06:31:17.892Z,99833.60
2018-03-21T06:33:45.514Z,99843.56
2018-03-21T06:36:13.097Z,99835.27
2018-03-21T06:38:40.719Z,99836.95
2018-03-21T06:41:08.294Z,99846.66
2018-03-21T06:43:35.869Z,99853.95
2018-03-21T06:46:03.495Z,99854.31
2018-03-21T06:48:31.055Z,99854.36
2018-03-21T06:50:58.676Z,99841.72
2018-03-21T06:53:26.242Z,99833.33
2018-03-21T06:55:53.807Z,99827.80
2018-03-21T06:58:21.449Z,99828.41
2018-03-21T07:00:49.014Z,99812.36
2018-03-21T07:03:16.640Z,99819.30
2018-03-21T07:05:44.212Z,99812.33
2018-03-21T07:08:11.784Z,99806.50
2018-03-21T07:10:39.414Z,99820.75
2018-03-21T07:13:07.096Z,99828.53
2018-03-21T07:15:46.623Z,99831.83
2018-03-21T07:18:14.261Z,99841.29
2018-03-21T07:20:41.893Z,99833.72
2018-03-21T07:23:09.556Z,99827.30
2018-03-21T07:25:37.199Z,99824.97
2018-03-21T07:28:04.812Z,99817.70
2018-03-21T07:30:32.450Z,99820.27
2018-03-21T07:33:00.021Z,99826.56
2018-03-21T07:35:27.594Z,99835.04
2018-03-21T07:37:55.164Z,99840.37
2018-03-21T07:40:22.791Z,99827.48
2018-03-21T07:42:50.352Z,99818.27
2018-03-21T07:45:17.921Z,99815.35
2018-03-21T07:47:45.558Z,99807.61
2018-03-21T07:50:13.182Z,99810.05
2018-03-21T07:52:40.776Z,99795.77
2018-03-21T07:55:08.341Z,99797.50
2018-03-21T07:57:35.978Z,99793.86
2018-03-21T08:00:03.544Z,99793.86
2018-03-21T08:02:31.120Z,99794.51
2018-03-21T08:04:58.679Z,99795.47
2018-03-21T08:07:26.297Z,99797.23
2018-03-21T08:09:53.931Z,99790.90
2018-03-21T08:12:21.504Z,99785.92
2018-03-21T08:14:49.134Z,99774.34
2018-03-21T08:17:16.686Z,99770.84
2018-03-21T08:19:44.247Z,99749.02
2018-03-21T08:22:11.809Z,99754.27
2018-03-21T08:24:39.454Z,99749.42
2018-03-21T08:27:07.074Z,99732.80
2018-03-21T08:29:34.691Z,99727.95
2018-03-21T08:32:02.295Z,99727.28
2018-03-21T08:34:29.858Z,99714.66
2018-03-21T08:36:57.442Z,99724.88
2018-03-21T08:39:25.012Z,99726.91
2018-03-21T08:41:52.596Z,99727.16
2018-03-21T08:44:20.158Z,99734.11
2018-03-21T08:46:47.731Z,99735.00
2018-03-21T08:49:15.296Z,99729.70
2018-03-21T08:51:42.991Z,99729.70
2018-03-21T08:54:10.778Z,99719.98
2018-03-21T08:56:38.346Z,99717.23
2018-03-21T08:59:05.920Z,99708.56
2018-03-21T09:01:33.495Z,99719.00
2018-03-21T09:04:01.071Z,99706.98
2018-03-21T09:06:28.640Z,99716.92
2018-03-21T09:08:56.275Z,99714.94
2018-03-21T09:11:23.842Z,99705.27
2018-03-21T09:13:51.522Z,99695.67
2018-03-21T09:16:19.151Z,99693.92
2018-03-21T09:18:46.714Z,99686.92
2018-03-21T09:21:14.350Z,99691.33
2018-03-21T09:23:41.910Z,99673.11
2018-03-21T09:26:09.505Z,99660.70
2018-03-21T09:28:37.079Z,99658.87
2018-03-21T09:31:04.723Z,99656.36
2018-03-21T09:33:32.286Z,99652.42
2018-03-21T09:35:59.978Z,99654.59
2018-03-21T09:38:27.560Z,99659.00
2018-03-21T09:40:55.143Z,99656.36
2018-03-21T09:43:22.719Z,99664.76
2018-03-21T09:45:50.283Z,99670.48
2018-03-21T09:48:17.872Z,99660.29
2018-03-21T09:50:45.443Z,99662.12
2018-03-21T09:53:13.017Z,99665.12
2018-03-21T09:55:40.582Z,99672.42
2018-03-21T09:58:08.276Z,99660.25
2018-03-21T10:00:35.853Z,99641.07
2018-03-21T10:03:03.428Z,99634.92
2018-03-21T10:05:31.064Z,99636.25
2018-03-21T10:07:58.626Z,99616.52
2018-03-21T10:10:26.196Z,99623.78
2018-03-21T10:12:53.820Z,99620.45
2018-03-21T10:15:21.406Z,99611.94
2018-03-21T10:17:48.963Z,99620.31
2018-03-21T10:20:16.613Z,99627.89
2018-03-21T10:22:44.185Z,99651.00
2018-03-21T10:25:11.753Z,99648.89
2018-03-21T10:27:39.394Z,99657.31
2018-03-21T10:30:07.024Z,99648.59
2018-03-21T10:32:34.595Z,99652.66
2018-03-21T10:35:02.158Z,99635.72
2018-03-21T10:37:29.785Z,99647.97
2018-03-21T10:39:57.342Z,99653.97
2018-03-21T10:42:24.962Z,99653.23
2018-03-21T10:44:52.606Z,99638.41
2018-03-21T10:47:20.268Z,99623.57
2018-03-21T10:49:47.876Z,99626.80
2018-03-21T10:52:15.445Z,99627.25
2018-03-21T10:54:43.086Z,99613.41
2018-03-21T10:57:10.692Z,99610.56
2018-03-21T10:59:38.307Z,99623.02
2018-03-21T11:02:11.479Z,99625.89
2018-03-21T11:04:39.185Z,99633.82
2018-03-21T11:07:06.819Z,99640.83
2018-03-21T11:09:34.388Z,99617.97
2018-03-21T11:12:01.964Z,99613.11
2018-03-21T11:14:29.530Z,99606.36
2018-03-21T11:16:57.102Z,99604.36
2018-03-21T11:19:24.666Z,99593.12
2018-03-21T11:21:52.243Z,99609.95
2018-03-21T11:24:19.898Z,99629.13
2018-03-21T11:26:47.482Z,99609.02
2018-03-21T11:29:15.044Z,99624.06
2018-03-21T11:31:42.606Z,99626.44
2018-03-21T11:34:10.270Z,99614.97
2018-03-21T11:36:37.841Z,99609.36
2018-03-21T11:39:05.420Z,99623.61
2018-03-21T11:41:32.994Z,99612.73
2018-03-21T11:44:00.627Z,99621.44
2018-03-21T11:46:28.256Z,99617.89
2018-03-21T11:48:55.834Z,99601.75
2018-03-21T11:51:23.459Z,99603.16
2018-03-21T11:53:51.085Z,99606.48
2018-03-21T11:56:18.654Z,99583.23
2018-03-21T11:58:46.221Z,99597.09
2018-03-21T12:01:13.897Z,99640.50
2018-03-21T12:03:41.767Z,99642.27
2018-03-21T12:06:09.467Z,99637.82
2018-03-21T12:08:37.137Z,99657.19
2018-03-21T12:11:04.766Z,99655.91
2018-03-21T12:13:32.327Z,99660.75
2018-03-21T12:15:59.894Z,99677.17
2018-03-21T12:18:27.534Z,99668.91
2018-03-21T12:20:55.101Z,99673.92
2018-03-21T12:23:22.673Z,99676.06
2018-03-21T12:25:50.249Z,99687.05
2018-03-21T12:28:17.822Z,99687.78
2018-03-21T12:30:45.392Z,99691.31
2018-03-21T12:33:13.014Z,99698.85
2018-03-21T12:35:40.586Z,99716.27
2018-03-21T12:38:08.255Z,99697.76
2018-03-21T12:40:35.841Z,99688.48
2018-03-21T12:43:03.421Z,99711.32
2018-03-21T12:45:30.998Z,99721.53
2018-03-21T12:47:58.577Z,99714.80
2018-03-21T12:50:26.210Z,99703.00
2018-03-21T12:52:53.779Z,99691.23
2018-03-21T12:55:21.411Z,99678.06
2018-03-21T12:57:49.035Z,99681.66
2018-03-21T13:00:16.602Z,99690.31
2018-03-21T13:02:44.183Z,99748.81
2018-03-21T13:05:11.756Z,99754.09
2018-03-21T13:07:39.340Z,99749.53
2018-03-21T13:10:06.928Z,99776.30
2018-03-21T13:12:34.510Z,99791.31
2018-03-21T13:15:02.074Z,99802.27
2018-03-21T13:17:29.702Z,99814.51
2018-03-21T13:19:57.335Z,99822.20
2018-03-21T13:22:24.939Z,99849.03
2018-03-21T13:24:52.514Z,99848.43
2018-03-21T13:27:20.138Z,99842.39
2018-03-21T13:29:47.771Z,99853.78
2018-03-21T13:32:15.399Z,99849.86
2018-03-21T13:34:43.037Z,99861.38
2018-03-21T13:37:10.602Z,99856.73
2018-03-21T13:39:38.222Z,99883.76
2018-03-21T13:42:05.843Z,99856.82
2018-03-21T13:44:33.414Z,99854.61
2018-03-21T13:47:01.063Z,99848.97
2018-03-21T13:49:28.625Z,99849.42
2018-03-21T13:51:56.203Z,99855.80
2018-03-21T13:54:23.844Z,99854.61
2018-03-21T13:56:51.475Z,99863.73
2018-03-21T13:59:19.038Z,99860.67
2018-03-21T14:01:46.654Z,99865.88
2018-03-21T14:04:14.303Z,99883.38
2018-03-21T14:06:41.928Z,99878.23
2018-03-21T14:09:09.569Z,99889.81
2018-03-21T14:11:37.233Z,99891.84
2018-03-21T14:14:04.876Z,99901.84
2018-03-21T14:16:32.478Z,99917.19
2018-03-21T14:19:00.119Z,99930.40
2018-03-21T14:21:27.747Z,99944.69
2018-03-21T14:23:55.427Z,99945.88
2018-03-21T14:26:23.057Z,99948.95
2018-03-21T14:28:50.683Z,99954.78
2018-03-21T14:31:18.273Z,99961.52
2018-03-21T14:33:45.847Z,99963.46
2018-03-21T14:36:13.420Z,99958.30
2018-03-21T14:38:41.045Z,99959.27
2018-03-21T14:41:08.735Z,99961.86
2018-03-21T14:43:36.299Z,99959.36
2018-03-21T14:46:03.876Z,99973.52
2018-03-21T14:48:31.446Z,99982.45
2018-03-21T14:50:59.088Z,99980.98
2018-03-21T14:53:26.733Z,100001.18
2018-03-21T14:55:54.376Z,100006.80
2018-03-21T14:58:22.068Z,100014.27
2018-03-21T15:00:51.168Z,100026.78
2018-03-21T15:03:18.806Z,100024.52
2018-03-21T15:05:46.487Z,100013.05
2018-03-21T15:08:14.070Z,100012.69
2018-03-21T15:10:41.654Z,100041.94
2018-03-21T15:13:09.303Z,100034.97
2018-03-21T15:15:36.884Z,100047.44
2018-03-21T15:18:05.094Z,100070.84
2018-03-21T15:20:32.718Z,100071.33
2018-03-21T15:23:00.309Z,100068.06
2018-03-21T15:25:27.883Z,100069.98
2018-03-21T15:27:55.457Z,100079.77
2018-03-21T15:30:23.020Z,100081.94
2018-03-21T15:32:50.695Z,100088.16
2018-03-21T15:35:18.346Z,100106.83
2018-03-21T15:37:45.945Z,100119.11
2018-03-21T15:40:13.528Z,100115.31
2018-03-21T15:42:41.167Z,100130.89
2018-03-21T15:45:08.757Z,100140.01
2018-03-21T15:47:36.420Z,100147.34
2018-03-21T15:50:04.075Z,100150.20
2018-03-21T15:52:31.659Z,100152.13
2018-03-21T15:54:59.243Z,100158.79
2018-03-21T15:57:26.880Z,100173.32
2018-03-21T15:59:54.517Z,100184.45
2018-03-21T16:02:22.693Z,100190.23
2018-03-21T16:04:50.274Z,100194.34
2018-03-21T16:07:18.595Z,100198.01
2018-03-21T16:09:46.227Z,100211.41
2018-03-21T16:12:13.810Z,100223.34
2018-03-21T16:14:41.401Z,100230.10
2018-03-21T16:17:09.047Z,100207.23
2018-03-21T16:19:36.618Z,100220.50
2018-03-21T16:22:04.256Z,100239.70
2018-03-21T16:24:31.833Z,100240.48
2018-03-21T16:26:59.498Z,100236.25
2018-03-21T16:29:27.080Z,100232.38
2018-03-21T16:31:54.654Z,100239.23
2018-03-21T16:34:22.235Z,100237.37
2018-03-21T16:36:49.810Z,100243.78
2018-03-21T16:39:17.400Z,100241.19
2018-03-21T16:41:44.970Z,100242.09
2018-03-21T16:44:12.590Z,100250.42
2018-03-21T16:46:40.178Z,100249.94
2018-03-21T16:49:07.764Z,100246.92
2018-03-21T16:51:35.362Z,100255.05
2018-03-21T16:54:02.999Z,100253.34
2018-03-21T16:56:30.574Z,100251.54
2018-03-21T16:58:58.224Z,100256.42
2018-03-21T17:01:25.802Z,100258.06
2018-03-21T17:03:53.371Z,100255.42
2018-03-21T17:06:20.995Z,100249.90
2018-03-21T17:08:48.578Z,100274.09
2018-03-21T17:11:16.206Z,100285.33
2018-03-21T17:13:43.794Z,100281.46
2018-03-21T17:16:11.375Z,100292.55
2018-03-21T17:18:39.050Z,100290.85
2018-03-21T17:21:06.627Z,100295.52
2018-03-21T17:23:34.251Z,100304.38
2018-03-21T17:26:01.886Z,100310.59
2018-03-21T17:28:29.533Z,100320.98
2018-03-21T17:30:57.114Z,100323.86
2018-03-21T17:33:24.691Z,100326.81
2018-03-21T17:35:52.280Z,100327.19
2018-03-21T17:38:19.866Z,100336.31
2018-03-21T17:40:47.448Z,100342.42
2018-03-21T17:43:15.054Z,100344.58
2018-03-21T17:45:42.716Z,100340.50
2018-03-21T17:48:10.302Z,100344.75
2018-03-21T17:50:37.887Z,100341.38
2018-03-21T17:53:05.476Z,100350.07
2018-03-21T17:55:33.061Z,100354.37
2018-03-21T17:58:00.650Z,100356.08
2018-03-21T18:00:28.297Z,100358.92
2018-03-21T18:02:55.884Z,100351.67
2018-03-21T18:05:23.456Z,100359.73
2018-03-21T18:07:51.143Z,100357.12
2018-03-21T18:10:18.723Z,100360.88
2018-03-21T18:12:46.371Z,100366.98
2018-03-21T18:15:13.989Z,100373.84
2018-03-21T18:17:41.566Z,100370.02
2018-03-21T18:20:09.150Z,100381.42
2018-03-21T18:22:36.730Z,100385.74
2018-03-21T18:25:04.344Z,100388.61
2018-03-21T18:27:31.916Z,100389.29
2018-03-21T18:29:59.556Z,100390.37
2018-03-21T18:32:27.156Z,100402.61
2018-03-21T18:34:54.809Z,100399.42
2018-03-21T18:37:22.473Z,100397.30
2018-03-21T18:39:50.116Z,100401.12
2018-03-21T18:42:17.794Z,100393.70
2018-03-21T18:44:45.431Z,100399.85
2018-03-21T18:47:13.044Z,100405.05
2018-03-21T18:49:40.707Z,100411.84
2018-03-21T18:52:08.387Z,100418.86
2018-03-21T18:54:36.134Z,100419.40
2018-03-21T18:57:03.774Z,100418.64
2018-03-21T18:59:31.567Z,100410.27
2018-03-21T19:01:59.257Z,100427.73
2018-03-21T19:04:26.909Z,100432.40
2018-03-21T19:06:54.601Z,100432.19
2018-03-21T19:09:22.291Z,100432.56
2018-03-21T19:11:49.867Z,100437.72
2018-03-21T19:14:17.521Z,100448.39
2018-03-21T19:16:45.255Z,100441.64
2018-03-21T19:19:12.840Z,100450.59
2018-03-21T19:21:40.488Z,100455.23
2018-03-21T19:24:08.244Z,100447.05
2018-03-21T19:26:35.904Z,100442.75
2018-03-21T19:29:04.048Z,100451.13
2018-03-21T19:31:31.637Z,100461.48
2018-03-21T19:33:59.291Z,100468.76
2018-03-21T19:36:27.027Z,100464.94
2018-03-21T19:38:54.598Z,100452.30
2018-03-21T19:41:22.178Z,100455.48
2018-03-21T19:43:49.839Z,100466.48
2018-03-21T19:46:17.470Z,100465.09
2018-03-21T19:48:45.080Z,100464.81
2018-03-21T19:51:13.922Z,100474.23
2018-03-21T19:53:41.507Z,100485.32
2018-03-21T19:56:09.094Z,100490.79
2018-03-21T19:58:36.742Z,100483.85
2018-03-21T20:01:04.325Z,100488.88
2018-03-21T20:03:31.964Z,100488.95
2018-03-21T20:05:59.608Z,100491.78
2018-03-21T20:08:27.193Z,100499.11
2018-03-21T20:10:54.780Z,100488.33
2018-03-21T20:13:22.408Z,100493.30
2018-03-21T20:15:50.036Z,100488.84
2018-03-21T20:18:17.603Z,100503.81
2018-03-21T20:20:45.222Z,100500.09
2018-03-21T20:23:12.851Z,100497.80
2018-03-21T20:25:40.534Z,100509.55
2018-03-21T20:28:08.136Z,100520.22
2018-03-21T20:30:35.725Z,100524.20
2018-03-21T20:33:03.371Z,100519.02
2018-03-21T20:35:30.945Z,100521.88
2018-03-21T20:37:58.605Z,100526.61
2018-03-21T20:40:26.237Z,100531.83
2018-03-21T20:42:53.825Z,100529.02
2018-03-21T20:45:21.402Z,100528.70
2018-03-21T20:47:49.046Z,100524.70
2018-03-21T20:50:16.622Z,100526.89
2018-03-21T20:52:44.200Z,100545.42
2018-03-21T20:55:11.801Z,100545.59
2018-03-21T20:57:39.450Z,100537.44
2018-03-21T21:00:07.090Z,100534.73
2018-03-21T21:02:34.714Z,100545.78
2018-03-21T21:05:02.352Z,100553.58
2018-03-21T21:07:30.000Z,100549.06
2018-03-21T21:09:57.631Z,100551.67
2018-03-21T21:12:25.275Z,100560.59
2018-03-21T21:14:52.844Z,100565.50
2018-03-21T21:17:20.425Z,100567.36
2018-03-21T21:19:48.080Z,100566.64
2018-03-21T21:22:15.780Z,100559.77
2018-03-21T21:24:43.372Z,100569.53
2018-03-21T21:27:10.942Z,100565.61
2018-03-21T21:29:38.526Z,100572.25
2018-03-21T21:32:06.103Z,100570.06
2018-03-21T21:34:33.695Z,100555.36
2018-03-21T21:37:01.273Z,100561.07
2018-03-21T21:39:28.864Z,100560.25
2018-03-21T21:41:56.503Z,100560.25
2018-03-21T21:44:24.132Z,100552.92
2018-03-21T21:46:51.802Z,100554.88
2018-03-21T21:49:19.484Z,100558.34
2018-03-21T21:51:47.123Z,100557.28
2018-03-21T21:54:14.702Z,100559.23
2018-03-21T21:56:42.283Z,100547.27
2018-03-21T21:59:09.925Z,100549.18
2018-03-21T22:01:37.514Z,100545.37
2018-03-21T22:04:05.125Z,100539.33
2018-03-21T22:06:32.763Z,100543.42
2018-03-21T22:09:00.335Z,100543.58
2018-03-21T22:11:27.905Z,100541.19
2018-03-21T22:13:55.491Z,100539.68
2018-03-21T22:16:23.124Z,100548.67
2018-03-21T22:18:50.709Z,100545.89
2018-03-21T22:21:18.338Z,100549.02
2018-03-21T22:23:45.915Z,100546.52
2018-03-21T22:26:13.484Z,100552.77
2018-03-21T22:28:41.106Z,100556.69
2018-03-21T22:31:08.739Z,100567.47
2018-03-21T22:33:36.311Z,100571.19
2018-03-21T22:36:03.890Z,100569.41
2018-03-21T22:38:31.454Z,100567.89
2018-03-21T22:40:59.043Z,100577.80
2018-03-21T22:43:26.615Z,100581.62
2018-03-21T22:45:54.193Z,100578.65
2018-03-21T22:48:21.765Z,100573.78
2018-03-21T22:50:49.454Z,100577.08
2018-03-21T22:53:17.127Z,100576.75
2018-03-21T22:55:44.744Z,100578.30
2018-03-21T22:58:12.340Z,100571.77
2018-03-21T23:00:39.998Z,100588.71
2018-03-21T23:03:07.561Z,100587.94
2018-03-21T23:05:35.131Z,100593.67
2018-03-21T23:08:02.722Z,100599.70
2018-03-21T23:10:30.298Z,100588.02
2018-03-21T23:12:57.987Z,100594.09
2018-03-21T23:15:25.624Z,100600.41
2018-03-21T23:17:53.194Z,100601.09
2018-03-21T23:20:20.780Z,100600.82
2018-03-21T23:22:48.354Z,100603.19
2018-03-21T23:25:15.991Z,100602.28
2018-03-21T23:27:43.573Z,100601.19
2018-03-21T23:30:11.223Z,100606.33
2018-03-21T23:32:38.794Z,100608.02
2018-03-21T23:35:06.485Z,100611.38
2018-03-21T23:37:34.122Z,100605.11
2018-03-21T23:40:01.709Z,100612.23
2018-03-21T23:42:29.301Z,100616.42
2018-03-21T23:44:56.880Z,100612.97
2018-03-21T23:47:24.527Z,100606.70
2018-03-21T23:49:52.117Z,100612.02
2018-03-21T23:52:19.704Z,100604.48
2018-03-21T23:54:47.291Z,100608.14
2018-03-21T23:57:14.927Z,100599.69
2018-03-21T23:59:42.582Z,100590.92
